createdAt,value
2022-09-14T00:02:21.665Z,3.30
2022-09-14T00:05:08.424Z,3.93
2022-09-14T00:07:54.571Z,3.12
2022-09-14T00:10:42.151Z,4.10
2022-09-14T00:13:28.249Z,3.60
2022-09-14T00:16:18.335Z,3.62
2022-09-14T00:19:06.787Z,3.47
2022-09-14T00:21:57.802Z,3.47
2022-09-14T00:24:43.720Z,3.90
2022-09-14T00:27:30.002Z,3.58
2022-09-14T00:30:15.794Z,3.62
2022-09-14T00:33:02.245Z,3.65
2022-09-14T00:35:48.233Z,3.60
2022-09-14T00:38:35.756Z,3.35
2022-09-14T00:41:27.332Z,4.10
2022-09-14T00:44:13.628Z,3.55
2022-09-14T00:47:01.551Z,3.45
2022-09-14T00:49:48.035Z,3.78
2022-09-14T00:52:35.552Z,3.90
2022-09-14T00:55:23.625Z,3.92
2022-09-14T00:58:09.534Z,3.80
2022-09-14T01:00:55.924Z,3.70
2022-09-14T01:03:42.214Z,4.00
2022-09-14T01:06:46.888Z,3.72
2022-09-14T01:09:41.732Z,3.90
2022-09-14T01:12:44.670Z,4.25
2022-09-14T01:15:52.316Z,4.03
2022-09-14T01:18:51.833Z,3.60
2022-09-14T01:21:38.715Z,3.55
2022-09-14T01:24:46.555Z,3.50
2022-09-14T01:27:43.989Z,3.80
2022-09-14T01:30:32.148Z,3.40
2022-09-14T01:33:27.218Z,3.37
2022-09-14T01:36:15.191Z,3.60
2022-09-14T01:39:01.847Z,3.75
2022-09-14T01:41:49.781Z,3.93
2022-09-14T01:44:37.619Z,4.10
2022-09-14T01:47:31.755Z,3.78
2022-09-14T01:50:22.539Z,3.55
2022-09-14T01:53:19.678Z,4.00
2022-09-14T01:56:26.809Z,4.20
2022-09-14T01:59:17.342Z,3.70
2022-09-14T02:02:07.733Z,3.78
2022-09-14T02:05:02.714Z,3.90
2022-09-14T02:07:48.660Z,3.67
2022-09-14T02:10:35.485Z,3.67
2022-09-14T02:13:22.191Z,3.50
2022-09-14T02:16:08.792Z,4.10
2022-09-14T02:18:55.108Z,4.07
2022-09-14T02:21:41.501Z,3.72
2022-09-14T02:24:28.358Z,3.70
2022-09-14T02:27:15.211Z,3.87
2022-09-14T02:30:00.920Z,4.10
2022-09-14T02:33:08.495Z,4.10
2022-09-14T02:35:56.081Z,4.07
2022-09-14T04:45:00.366Z,4.07
2022-09-14T04:47:46.933Z,3.30
2022-09-14T04:50:33.110Z,3.25
2022-09-14T04:53:21.600Z,4.10
2022-09-14T04:56:09.913Z,4.10
2022-09-14T04:59:01.938Z,3.62
2022-09-14T05:01:49.623Z,3.72
2022-09-14T05:04:35.990Z,3.80
2022-09-14T05:07:21.850Z,4.10
2022-09-14T05:10:08.476Z,4.25
2022-09-14T05:12:54.503Z,4.03
2022-09-14T05:15:42.622Z,4.50
2022-09-14T05:18:28.738Z,4.20
2022-09-14T05:21:17.650Z,3.87
2022-09-14T05:24:08.288Z,4.15
2022-09-14T05:26:59.461Z,3.92
2022-09-14T05:29:46.935Z,4.22
2022-09-14T05:32:33.124Z,4.12
2022-09-14T05:35:19.192Z,3.70
2022-09-14T05:38:05.364Z,4.00
2022-09-14T05:40:55.096Z,4.10
2022-09-14T05:43:42.382Z,3.75
2022-09-14T05:46:28.610Z,3.80
2022-09-14T05:49:14.776Z,3.62
2022-09-14T05:52:00.962Z,3.80
2022-09-14T05:54:47.531Z,3.12
2022-09-14T05:57:33.859Z,3.58
2022-09-14T06:00:21.687Z,3.47
2022-09-14T06:03:08.160Z,3.85
2022-09-14T06:05:57.899Z,3.90
2022-09-14T06:08:44.645Z,3.62
2022-09-14T06:11:33.377Z,3.55
2022-09-14T06:14:20.858Z,3.37
2022-09-14T06:17:06.885Z,3.58
2022-09-14T06:19:53.268Z,3.83
2022-09-14T06:22:39.171Z,3.70
2022-09-14T06:25:25.554Z,3.45
2022-09-14T06:28:11.544Z,3.37
2022-09-14T06:30:58.364Z,3.78
2022-09-14T06:33:45.722Z,4.25
2022-09-14T06:36:32.261Z,4.05
2022-09-14T06:39:18.104Z,4.10
2022-09-14T06:42:04.911Z,3.87
2022-09-14T06:44:50.823Z,4.10
2022-09-14T06:47:37.283Z,4.05
2022-09-14T06:50:23.310Z,3.97
2022-09-14T06:53:09.557Z,4.25
2022-09-14T06:55:59.138Z,4.87
2022-09-14T06:58:45.527Z,4.07
2022-09-14T07:01:31.959Z,4.40
2022-09-14T07:04:18.264Z,4.62
2022-09-14T07:07:04.143Z,5.22
2022-09-14T07:09:50.470Z,4.93
2022-09-14T07:12:36.426Z,4.95
2022-09-14T07:15:22.786Z,4.90
2022-09-14T07:18:08.651Z,4.97
2022-09-14T07:20:55.475Z,4.82
2022-09-14T07:23:43.692Z,5.22
2022-09-14T07:26:32.307Z,4.85
2022-09-14T07:29:19.325Z,4.60
2022-09-14T07:32:05.925Z,4.90
2022-09-14T07:34:52.303Z,5.60
2022-09-14T07:37:38.594Z,5.72
2022-09-14T07:40:25.252Z,6.07
2022-09-14T07:43:12.356Z,5.65
2022-09-14T07:46:02.087Z,4.85
2022-09-14T07:48:49.307Z,5.40
2022-09-14T07:51:36.802Z,5.28
2022-09-14T07:54:23.098Z,6.03
2022-09-14T07:57:09.702Z,5.22
2022-09-14T07:59:58.512Z,5.00
2022-09-14T08:02:44.738Z,5.22
2022-09-14T08:05:31.337Z,5.00
2022-09-14T08:08:17.130Z,5.25
2022-09-14T08:11:07.781Z,4.65
2022-09-14T08:13:55.373Z,4.50
2022-09-14T08:16:41.735Z,4.72
2022-09-14T08:19:27.922Z,4.75
2022-09-14T08:22:13.657Z,5.28
2022-09-14T08:24:59.589Z,5.07
2022-09-14T08:27:45.471Z,5.35
2022-09-14T08:30:31.254Z,5.70
2022-09-14T08:33:17.122Z,5.30
2022-09-14T08:36:03.643Z,5.57
2022-09-14T08:38:49.722Z,5.22
2022-09-14T08:41:38.400Z,5.35
2022-09-14T08:44:30.696Z,6.00
2022-09-14T08:47:21.994Z,6.03
2022-09-14T08:50:11.410Z,5.72
2022-09-14T08:52:59.646Z,5.00
2022-09-14T08:55:49.629Z,6.03
2022-09-14T08:58:56.473Z,5.97
2022-09-14T09:02:03.268Z,5.70
2022-09-14T09:04:54.082Z,5.87
2022-09-14T09:07:56.374Z,5.93
2022-09-14T09:10:42.529Z,5.28
2022-09-14T09:13:31.703Z,6.05
2022-09-14T09:16:21.261Z,5.22
2022-09-14T09:19:13.043Z,5.35
2022-09-14T09:22:00.065Z,5.53
2022-09-14T09:24:50.457Z,5.70
2022-09-14T09:27:36.504Z,5.12
2022-09-14T09:30:22.520Z,5.18
2022-09-14T09:38:46.575Z,4.75
2022-09-14T09:50:01.099Z,5.00
2022-09-14T10:15:34.976Z,5.15
2022-09-14T10:32:32.694Z,5.22
2022-09-14T10:35:19.902Z,4.57
2022-09-14T11:59:32.963Z,4.68
2022-09-14T12:08:01.880Z,4.35
2022-09-14T12:11:09.501Z,4.90
2022-09-14T12:14:30.410Z,4.82
2022-09-14T12:17:38.859Z,4.20
2022-09-14T12:20:38.563Z,4.82
2022-09-14T12:23:37.220Z,4.30
2022-09-14T12:26:23.163Z,3.90
2022-09-14T12:29:31.760Z,4.07
2022-09-14T12:32:41.397Z,3.55
2022-09-14T12:35:40.031Z,3.60
2022-09-14T12:38:31.900Z,3.65
2022-09-14T12:41:17.900Z,3.33
2022-09-14T12:44:05.356Z,2.95
2022-09-14T12:46:51.654Z,2.83
2022-09-14T12:49:38.305Z,3.12
2022-09-14T12:52:38.489Z,3.78
2022-09-14T12:55:36.897Z,3.30
2022-09-14T12:58:26.782Z,3.00
2022-09-14T13:01:27.836Z,2.92
2022-09-14T13:04:25.160Z,2.85
2022-09-14T13:07:19.609Z,3.42
2022-09-14T13:10:06.849Z,3.75
2022-09-14T13:12:52.983Z,3.25
2022-09-14T13:15:59.149Z,2.87
2022-09-14T13:33:17.147Z,2.10
2022-09-14T13:36:04.205Z,2.80
2022-09-14T13:38:51.378Z,2.60
2022-09-14T13:41:42.954Z,2.47
2022-09-14T13:44:35.274Z,2.70
2022-09-14T13:47:24.337Z,2.72
2022-09-14T13:50:12.963Z,2.60
2022-09-14T13:53:04.148Z,2.33
2022-09-14T13:55:50.691Z,2.20
2022-09-14T13:58:37.202Z,2.40
2022-09-14T14:01:26.144Z,2.60
2022-09-14T14:04:39.144Z,2.70
2022-09-14T14:07:30.954Z,2.70
2022-09-14T14:10:32.859Z,2.80
2022-09-14T14:13:30.057Z,2.62
2022-09-14T14:16:22.367Z,3.40
2022-09-14T14:19:29.178Z,2.50
2022-09-14T14:22:30.682Z,2.30
2022-09-14T14:25:25.066Z,2.80
2022-09-14T16:06:30.569Z,3.05
2022-09-14T16:09:17.931Z,3.10
2022-09-14T16:12:04.094Z,3.37
2022-09-14T16:14:50.637Z,3.10
2022-09-14T16:17:36.428Z,2.90
2022-09-14T16:20:22.867Z,3.05
2022-09-14T16:23:09.161Z,3.10
2022-09-14T16:31:31.022Z,3.28
